createdAt,value
2022-08-22T00:00:02.021Z,18.67
2022-08-22T00:00:13.465Z,18.67
2022-08-22T00:00:22.163Z,18.67
2022-08-22T00:00:32.079Z,18.70
2022-08-22T00:00:42.802Z,18.62
2022-08-22T00:00:52.197Z,18.64
2022-08-22T00:01:02.101Z,18.68
2022-08-22T00:01:11.971Z,18.67
2022-08-22T00:01:22.048Z,18.67
2022-08-22T00:01:32.075Z,18.65
2022-08-22T00:01:42.036Z,18.68
2022-08-22T00:01:52.091Z,18.62
2022-08-22T00:02:02.513Z,18.61
2022-08-22T00:02:12.055Z,18.70
2022-08-22T00:02:22.027Z,18.64
2022-08-22T00:02:32.213Z,18.65
2022-08-22T00:02:41.708Z,23.32
2022-08-22T00:02:41.887Z,23.14
2022-08-22T00:02:43.620Z,20.59
2022-08-22T00:02:44.019Z,20.24
2022-08-22T00:02:45.887Z,21.53
2022-08-22T00:02:47.664Z,23.05
2022-08-22T00:02:49.334Z,20.65
2022-08-22T00:02:49.863Z,19.87
2022-08-22T00:02:53.143Z,22.25
2022-08-22T00:02:54.176Z,20.53
2022-08-22T00:02:54.354Z,20.41
2022-08-22T00:02:54.492Z,20.28
2022-08-22T00:02:55.385Z,19.32
2022-08-22T00:02:55.494Z,19.14
2022-08-22T00:02:56.460Z,22.27
2022-08-22T00:02:59.391Z,18.83
2022-08-22T00:03:00.349Z,22.23
2022-08-22T00:03:00.572Z,20.80
2022-08-22T00:03:00.666Z,22.93
2022-08-22T00:03:00.779Z,23.32
2022-08-22T00:03:02.493Z,21.30
2022-08-22T00:03:04.819Z,23.35
2022-08-22T00:03:06.627Z,19.14
2022-08-22T00:03:07.845Z,19.79
2022-08-22T00:03:08.632Z,20.28
2022-08-22T00:03:09.129Z,21.01
2022-08-22T00:03:09.334Z,19.35
2022-08-22T00:03:09.503Z,19.24
2022-08-22T00:03:10.557Z,19.36
2022-08-22T00:03:10.645Z,20.24
2022-08-22T00:03:11.845Z,19.15
2022-08-22T00:03:15.629Z,18.64
2022-08-22T00:03:15.839Z,18.64
2022-08-22T00:03:18.408Z,18.65
2022-08-22T00:03:32.248Z,18.67
2022-08-22T00:03:42.166Z,18.67
2022-08-22T00:03:52.029Z,18.65
2022-08-22T00:04:02.139Z,18.67
2022-08-22T00:04:11.976Z,18.65
2022-08-22T00:04:22.217Z,18.67
2022-08-22T00:04:33.460Z,18.68
2022-08-22T00:04:42.034Z,18.67
2022-08-22T00:04:51.985Z,18.67
2022-08-22T00:05:02.212Z,18.68
2022-08-22T00:05:12.305Z,18.72
2022-08-22T00:05:22.270Z,18.68
2022-08-22T00:05:32.220Z,18.67
2022-08-22T00:05:42.006Z,18.68
2022-08-22T00:05:52.008Z,18.67
2022-08-22T00:06:02.081Z,18.70
2022-08-22T00:06:12.251Z,18.67
2022-08-22T00:06:22.182Z,18.74
2022-08-22T00:06:32.453Z,18.70
2022-08-22T00:06:42.070Z,18.70
2022-08-22T00:06:51.998Z,18.70
2022-08-22T00:07:02.240Z,18.72
2022-08-22T00:07:12.141Z,18.72
2022-08-22T00:07:22.086Z,18.70
2022-08-22T00:07:32.308Z,18.73
2022-08-22T00:07:42.089Z,18.67
2022-08-22T00:07:52.242Z,18.72
2022-08-22T00:08:02.182Z,18.72
2022-08-22T00:08:12.338Z,18.73
2022-08-22T00:08:22.152Z,18.68
2022-08-22T00:08:32.025Z,18.67
2022-08-22T00:08:42.217Z,18.70
2022-08-22T00:08:52.154Z,18.70
2022-08-22T00:09:02.239Z,18.68
2022-08-22T00:09:12.049Z,18.72
2022-08-22T00:09:22.195Z,18.70
2022-08-22T00:09:32.233Z,18.70
2022-08-22T00:09:42.139Z,18.72
2022-08-22T00:09:52.160Z,18.65
2022-08-22T00:10:02.209Z,18.68
2022-08-22T00:10:12.110Z,18.70
2022-08-22T00:10:25.468Z,18.65
2022-08-22T00:10:32.113Z,18.68
2022-08-22T00:10:42.453Z,18.68
2022-08-22T00:10:52.149Z,18.68
2022-08-22T00:11:01.976Z,18.67
2022-08-22T00:11:11.985Z,18.67
2022-08-22T00:11:22.166Z,18.67
2022-08-22T00:11:32.099Z,18.68
2022-08-22T00:11:41.997Z,18.68
2022-08-22T00:11:51.986Z,18.67
2022-08-22T00:12:02.264Z,18.70
2022-08-22T00:12:12.076Z,18.70
2022-08-22T00:12:22.443Z,18.65
2022-08-22T00:12:32.283Z,18.67
2022-08-22T00:12:42.053Z,18.68
2022-08-22T00:12:52.261Z,18.68
2022-08-22T00:13:02.033Z,18.68
2022-08-22T00:13:12.131Z,18.68
2022-08-22T00:13:21.968Z,18.67
2022-08-22T00:13:32.012Z,18.68
2022-08-22T00:13:41.987Z,18.68
2022-08-22T00:14:01.102Z,18.68
2022-08-22T00:14:02.299Z,18.67
2022-08-22T00:14:12.247Z,18.70
2022-08-22T00:14:22.095Z,18.67
2022-08-22T00:14:32.215Z,18.68
2022-08-22T00:14:42.205Z,18.67
2022-08-22T00:14:52.029Z,18.72
2022-08-22T00:15:02.107Z,18.73
2022-08-22T00:15:16.372Z,18.73
2022-08-22T00:15:41.872Z,18.68
2022-08-22T00:15:42.838Z,18.68
2022-08-22T00:15:44.309Z,18.72
2022-08-22T00:15:52.163Z,18.68
2022-08-22T00:16:01.975Z,18.68
2022-08-22T00:16:12.119Z,18.72
2022-08-22T00:16:22.293Z,18.70
2022-08-22T00:16:32.245Z,18.68
2022-08-22T00:16:42.282Z,18.70
2022-08-22T00:16:53.559Z,18.70
2022-08-22T00:17:02.129Z,18.68
2022-08-22T00:17:12.094Z,18.70
2022-08-22T00:17:21.964Z,18.68
2022-08-22T00:17:32.085Z,18.72
2022-08-22T00:17:42.207Z,18.70
2022-08-22T00:17:52.145Z,18.67
2022-08-22T00:18:02.304Z,18.68
2022-08-22T00:18:12.116Z,18.68
2022-08-22T00:18:22.097Z,18.70
2022-08-22T00:18:31.963Z,18.70
2022-08-22T00:18:42.145Z,18.67
2022-08-22T00:18:52.052Z,18.67
2022-08-22T00:19:02.229Z,18.67
2022-08-22T00:19:12.271Z,18.65
2022-08-22T00:19:22.063Z,18.65
2022-08-22T00:19:32.011Z,18.65
2022-08-22T00:19:42.195Z,18.65
2022-08-22T00:19:52.116Z,18.65
2022-08-22T00:20:02.197Z,18.70
2022-08-22T00:20:11.991Z,18.67
2022-08-22T00:20:22.221Z,18.65
2022-08-22T00:20:32.186Z,18.64
2022-08-22T00:20:42.097Z,18.64
2022-08-22T00:20:52.232Z,18.62
2022-08-22T00:21:02.166Z,18.70
2022-08-22T00:21:12.116Z,18.64
2022-08-22T00:21:22.204Z,18.62
2022-08-22T00:21:31.965Z,18.68
2022-08-22T00:21:42.278Z,18.64
2022-08-22T00:21:51.969Z,18.62
2022-08-22T00:22:02.138Z,18.65
2022-08-22T00:22:12.059Z,18.64
2022-08-22T00:22:21.973Z,18.62
2022-08-22T00:22:32.254Z,18.65
2022-08-22T00:22:42.014Z,18.61
2022-08-22T00:22:52.192Z,18.64
2022-08-22T00:23:01.985Z,18.62
2022-08-22T00:23:12.102Z,18.59
2022-08-22T00:23:22.065Z,18.59
2022-08-22T00:23:32.198Z,18.61
2022-08-22T00:23:42.273Z,18.61
2022-08-22T00:23:52.184Z,18.57
2022-08-22T00:24:02.000Z,18.59
2022-08-22T00:24:12.395Z,18.59
2022-08-22T00:24:22.237Z,18.57
2022-08-22T00:24:31.969Z,18.62
2022-08-22T00:24:42.234Z,18.58
2022-08-22T00:24:52.082Z,18.58
2022-08-22T00:25:01.986Z,18.58
2022-08-22T00:25:24.593Z,18.61
2022-08-22T00:25:25.721Z,18.58
2022-08-22T00:25:31.960Z,18.58
2022-08-22T00:25:42.060Z,18.58
2022-08-22T00:25:51.976Z,18.55
2022-08-22T00:26:02.114Z,18.57
2022-08-22T00:26:12.214Z,18.57
2022-08-22T00:26:22.078Z,18.59
2022-08-22T00:26:32.138Z,18.59
2022-08-22T00:26:45.225Z,18.58
2022-08-22T00:26:52.186Z,18.57
2022-08-22T00:27:02.251Z,18.59
2022-08-22T00:27:12.047Z,18.59
2022-08-22T00:27:22.078Z,18.58
2022-08-22T00:27:32.016Z,18.57
2022-08-22T00:27:44.894Z,18.58
2022-08-22T00:27:52.178Z,18.59
2022-08-22T00:28:02.043Z,18.57
2022-08-22T00:28:12.270Z,18.57
2022-08-22T00:28:22.050Z,18.59
2022-08-22T00:28:32.351Z,18.58
2022-08-22T00:28:41.985Z,18.55
2022-08-22T00:28:52.043Z,18.58
2022-08-22T00:29:02.050Z,18.57
2022-08-22T00:29:12.209Z,18.59
2022-08-22T00:29:22.079Z,18.59
2022-08-22T00:29:32.229Z,18.58
2022-08-22T00:29:41.989Z,18.57
2022-08-22T00:29:52.348Z,18.58
2022-08-22T00:30:02.099Z,18.57
2022-08-22T00:30:12.006Z,18.57
2022-08-22T00:30:22.051Z,18.58
2022-08-22T00:30:32.060Z,18.54
2022-08-22T00:30:42.182Z,18.54
2022-08-22T00:30:52.148Z,18.58
2022-08-22T00:31:02.042Z,18.55
2022-08-22T00:31:12.009Z,18.57
2022-08-22T00:31:22.122Z,18.58
2022-08-22T00:31:32.150Z,18.58
2022-08-22T00:31:42.029Z,18.58
2022-08-22T00:31:52.194Z,18.59
2022-08-22T00:32:02.136Z,18.62
2022-08-22T00:32:11.972Z,18.59
2022-08-22T00:32:21.994Z,18.58
2022-08-22T00:32:32.158Z,18.61
2022-08-22T00:32:42.149Z,18.59
2022-08-22T00:32:52.149Z,18.61
2022-08-22T00:33:02.225Z,18.59
2022-08-22T00:33:12.186Z,18.61
2022-08-22T00:33:22.115Z,18.62
2022-08-22T00:33:32.008Z,18.58
2022-08-22T00:33:42.071Z,18.62
2022-08-22T00:33:52.025Z,18.59
2022-08-22T00:34:02.060Z,18.61
2022-08-22T00:34:12.055Z,18.62
2022-08-22T00:34:22.114Z,18.62
2022-08-22T00:34:32.055Z,18.58
2022-08-22T00:34:42.132Z,18.65
2022-08-22T00:34:52.106Z,18.65
2022-08-22T00:35:01.971Z,18.65
2022-08-22T00:35:12.433Z,18.65
2022-08-22T00:35:22.266Z,18.65
2022-08-22T00:35:32.081Z,18.62
2022-08-22T00:35:45.151Z,18.64
2022-08-22T00:35:52.025Z,18.64
2022-08-22T00:36:01.978Z,18.64
2022-08-22T00:36:11.979Z,18.64
2022-08-22T00:36:22.147Z,18.62
2022-08-22T00:36:32.118Z,18.62
2022-08-22T00:36:41.989Z,18.65
2022-08-22T00:36:51.987Z,18.62
2022-08-22T00:37:02.038Z,18.62
2022-08-22T00:37:12.131Z,18.67
2022-08-22T00:37:22.279Z,18.65
2022-08-22T00:37:32.198Z,18.64
2022-08-22T00:37:42.126Z,18.65
2022-08-22T00:37:52.088Z,18.62
2022-08-22T00:38:02.187Z,18.64
2022-08-22T00:38:12.209Z,18.68
2022-08-22T00:38:22.235Z,18.62
2022-08-22T00:38:32.035Z,18.62
2022-08-22T00:38:41.985Z,18.62
2022-08-22T00:38:52.327Z,18.64
2022-08-22T00:39:02.270Z,18.65
2022-08-22T00:39:12.033Z,18.64
2022-08-22T00:39:22.210Z,18.62
2022-08-22T00:39:32.195Z,18.62
2022-08-22T00:39:42.115Z,18.64
2022-08-22T00:39:52.120Z,18.62
2022-08-22T00:40:03.479Z,18.64
2022-08-22T00:40:12.038Z,18.62
2022-08-22T00:40:22.217Z,18.59
2022-08-22T00:40:32.217Z,18.59
2022-08-22T00:40:42.058Z,18.59
2022-08-22T00:40:52.074Z,18.62
2022-08-22T00:41:02.249Z,18.58
2022-08-22T00:41:11.964Z,18.62
2022-08-22T00:41:22.017Z,18.58
2022-08-22T00:41:31.970Z,18.61
2022-08-22T00:41:42.098Z,18.59
2022-08-22T00:41:52.233Z,18.58
2022-08-22T00:42:02.278Z,18.59
2022-08-22T00:42:12.180Z,18.59
2022-08-22T00:42:31.414Z,18.58
2022-08-22T00:42:32.423Z,18.55
2022-08-22T00:42:42.008Z,18.58
2022-08-22T00:42:52.240Z,18.57
2022-08-22T00:43:02.090Z,18.54
2022-08-22T00:43:12.213Z,18.55
2022-08-22T00:43:22.104Z,18.57
2022-08-22T00:43:32.051Z,18.57
2022-08-22T00:43:42.270Z,18.59
2022-08-22T00:43:52.102Z,18.57
2022-08-22T00:44:02.217Z,18.54
2022-08-22T00:44:12.034Z,18.54
2022-08-22T00:44:22.110Z,18.58
2022-08-22T00:44:31.995Z,18.57
2022-08-22T00:44:42.040Z,18.57
2022-08-22T00:44:52.126Z,18.55
2022-08-22T00:45:02.243Z,18.55
2022-08-22T00:45:11.974Z,18.50
2022-08-22T00:45:22.047Z,18.52
2022-08-22T00:45:32.069Z,18.54
2022-08-22T00:45:42.018Z,18.49
2022-08-22T00:45:52.007Z,18.55
2022-08-22T00:46:02.096Z,18.52
2022-08-22T00:46:14.548Z,18.52
2022-08-22T00:46:21.983Z,18.52
2022-08-22T00:46:32.076Z,18.50
2022-08-22T00:46:42.078Z,18.55
2022-08-22T00:46:52.208Z,18.55
2022-08-22T00:47:02.131Z,18.50
2022-08-22T00:47:12.192Z,18.49
2022-08-22T00:47:22.179Z,18.52
2022-08-22T00:47:31.990Z,18.52
2022-08-22T00:47:42.160Z,18.49
2022-08-22T00:47:52.130Z,18.50
2022-08-22T00:48:02.256Z,18.46
2022-08-22T00:48:14.406Z,18.49
2022-08-22T00:48:22.054Z,18.52
2022-08-22T00:48:32.131Z,18.50
2022-08-22T00:48:42.105Z,18.49
2022-08-22T00:48:52.376Z,18.46
2022-08-22T00:49:01.990Z,18.46
2022-08-22T00:49:12.089Z,18.47
2022-08-22T00:49:22.106Z,18.50
2022-08-22T00:49:32.220Z,18.49
2022-08-22T00:49:42.137Z,18.44
2022-08-22T00:49:52.127Z,18.47
2022-08-22T00:50:02.071Z,18.47
2022-08-22T00:50:12.134Z,18.49
2022-08-22T00:50:22.086Z,18.47
2022-08-22T00:50:32.120Z,18.43
2022-08-22T00:50:42.034Z,18.46
2022-08-22T00:50:52.153Z,18.44
2022-08-22T00:51:02.142Z,18.46
2022-08-22T00:51:11.964Z,18.46
2022-08-22T00:51:22.123Z,18.47
2022-08-22T00:51:32.094Z,18.43
2022-08-22T00:51:41.999Z,18.46
2022-08-22T00:51:52.110Z,18.44
2022-08-22T00:52:02.079Z,18.44
2022-08-22T00:52:12.161Z,18.43
2022-08-22T00:52:22.036Z,18.44
2022-08-22T00:52:32.054Z,18.43
2022-08-22T00:52:42.042Z,18.46
2022-08-22T00:52:52.182Z,18.44
2022-08-22T00:53:02.044Z,18.44
2022-08-22T00:53:11.977Z,18.46
2022-08-22T00:53:22.206Z,18.44
2022-08-22T00:53:32.142Z,18.42
2022-08-22T00:53:42.114Z,18.44
2022-08-22T00:53:52.035Z,18.47
2022-08-22T00:54:02.195Z,18.46
2022-08-22T00:54:17.605Z,18.49
2022-08-22T00:54:22.077Z,18.44
2022-08-22T00:54:32.069Z,18.42
2022-08-22T00:54:42.074Z,18.44
2022-08-22T00:54:52.062Z,18.44
2022-08-22T00:55:02.161Z,18.43
2022-08-22T00:55:12.005Z,18.46
2022-08-22T00:55:22.110Z,18.44
2022-08-22T00:55:34.907Z,18.43
2022-08-22T00:55:42.240Z,18.43
2022-08-22T00:55:52.133Z,18.44
2022-08-22T00:56:02.165Z,18.43
2022-08-22T00:56:11.991Z,18.43
2022-08-22T00:56:21.979Z,18.44
2022-08-22T00:56:32.116Z,18.46
2022-08-22T00:56:42.253Z,18.42
2022-08-22T00:56:52.202Z,18.42
2022-08-22T00:57:02.237Z,18.43
2022-08-22T00:57:12.109Z,18.43
2022-08-22T00:57:22.052Z,18.42
2022-08-22T00:57:31.980Z,18.43
2022-08-22T00:57:42.040Z,18.44
2022-08-22T00:57:52.229Z,18.42
2022-08-22T00:58:02.239Z,18.43
2022-08-22T00:58:12.176Z,18.40
2022-08-22T00:58:22.011Z,18.43
2022-08-22T00:58:32.156Z,18.44
2022-08-22T00:58:42.114Z,18.43
2022-08-22T00:58:52.219Z,18.43
2022-08-22T00:59:22.754Z,18.39
2022-08-22T00:59:23.074Z,18.44
2022-08-22T00:59:23.785Z,18.43
2022-08-22T00:59:32.095Z,18.43
2022-08-22T00:59:42.227Z,18.43
2022-08-22T00:59:52.152Z,18.42
2022-08-22T01:00:02.222Z,18.46
2022-08-22T01:00:12.006Z,18.42
2022-08-22T01:00:21.985Z,18.43
2022-08-22T01:00:34.362Z,18.43
2022-08-22T01:00:42.169Z,18.42
2022-08-22T01:00:52.209Z,18.40
2022-08-22T01:01:02.120Z,18.40
2022-08-22T01:01:12.208Z,18.44
2022-08-22T01:01:22.041Z,18.44
2022-08-22T01:01:32.187Z,18.43
2022-08-22T01:01:42.043Z,18.40
2022-08-22T01:01:52.061Z,18.42
2022-08-22T01:02:02.092Z,18.42
2022-08-22T01:02:12.132Z,18.44
2022-08-22T01:02:22.189Z,18.43
2022-08-22T01:02:32.233Z,18.43
2022-08-22T01:02:41.978Z,18.43
2022-08-22T01:02:52.899Z,18.44
2022-08-22T01:03:02.178Z,18.42
2022-08-22T01:03:11.959Z,18.42
2022-08-22T01:03:21.979Z,18.44
2022-08-22T01:03:32.211Z,18.42
2022-08-22T01:03:42.072Z,18.43
2022-08-22T01:03:52.126Z,18.43
2022-08-22T01:04:02.137Z,18.40
2022-08-22T01:04:12.235Z,18.42
2022-08-22T01:04:22.148Z,18.40
2022-08-22T01:04:32.251Z,18.36
2022-08-22T01:04:42.048Z,18.37
2022-08-22T01:04:52.183Z,18.40
2022-08-22T01:05:02.099Z,18.42
2022-08-22T01:05:12.163Z,18.42
2022-08-22T01:05:21.979Z,18.37
2022-08-22T01:05:32.030Z,18.39
2022-08-22T01:05:42.127Z,18.43
2022-08-22T01:05:52.262Z,18.37
2022-08-22T01:06:02.248Z,18.37
2022-08-22T01:06:12.017Z,18.39
2022-08-22T01:06:22.321Z,18.39
2022-08-22T01:06:32.262Z,18.37
2022-08-22T01:06:41.993Z,18.37
2022-08-22T01:06:52.083Z,18.39
2022-08-22T01:07:02.157Z,18.37
2022-08-22T01:07:12.174Z,18.39
2022-08-22T01:07:22.002Z,18.37
2022-08-22T01:07:37.799Z,18.36
2022-08-22T01:07:42.258Z,18.36
2022-08-22T01:07:52.270Z,18.33
2022-08-22T01:08:02.087Z,18.36
2022-08-22T01:08:12.215Z,18.40
2022-08-22T01:08:22.229Z,18.33
2022-08-22T01:08:32.172Z,18.33
2022-08-22T01:08:42.115Z,18.34
2022-08-22T01:08:52.119Z,18.34
2022-08-22T01:09:02.118Z,18.34
2022-08-22T01:09:12.205Z,18.34
2022-08-22T01:09:22.036Z,18.33
2022-08-22T01:09:32.252Z,18.33
2022-08-22T01:09:42.091Z,18.33
2022-08-22T01:09:52.075Z,18.33
2022-08-22T01:10:02.067Z,18.31
2022-08-22T01:10:12.001Z,18.29
2022-08-22T01:10:22.034Z,18.29
2022-08-22T01:10:32.022Z,18.31
2022-08-22T01:10:42.166Z,18.31
2022-08-22T01:10:52.030Z,18.31
2022-08-22T01:11:01.996Z,18.33
2022-08-22T01:11:12.009Z,18.28
2022-08-22T01:11:22.060Z,18.29
2022-08-22T01:11:32.369Z,18.29
2022-08-22T01:11:42.127Z,18.28
2022-08-22T01:11:51.979Z,18.29
2022-08-22T01:12:02.085Z,18.28
2022-08-22T01:12:12.145Z,18.31
2022-08-22T01:12:22.129Z,18.25
2022-08-22T01:12:32.225Z,18.27
2022-08-22T01:12:41.979Z,18.29
2022-08-22T01:12:52.243Z,18.25
2022-08-22T01:13:02.286Z,18.28
2022-08-22T01:13:12.160Z,18.25
2022-08-22T01:13:22.174Z,18.27
2022-08-22T01:13:32.137Z,18.27
2022-08-22T01:13:41.984Z,18.25
2022-08-22T01:13:52.069Z,18.25
2022-08-22T01:14:02.158Z,18.25
2022-08-22T01:14:12.190Z,18.28
2022-08-22T01:14:34.380Z,18.29
2022-08-22T01:14:35.047Z,18.29
2022-08-22T01:14:42.046Z,18.27
2022-08-22T01:14:52.091Z,18.24
2022-08-22T01:15:02.057Z,18.27
2022-08-22T01:15:12.065Z,18.24
2022-08-22T01:15:22.124Z,18.25
2022-08-22T01:15:32.062Z,18.22
2022-08-22T01:15:42.226Z,18.27
2022-08-22T01:15:52.023Z,18.25
2022-08-22T01:16:02.132Z,18.25
2022-08-22T01:16:12.260Z,18.27
2022-08-22T01:16:22.259Z,18.28
2022-08-22T01:16:32.052Z,18.21
2022-08-22T01:16:42.250Z,18.19
2022-08-22T01:16:52.206Z,18.25
2022-08-22T01:17:02.071Z,18.21
2022-08-22T01:17:12.011Z,18.24
2022-08-22T01:17:22.059Z,18.24
2022-08-22T01:17:32.134Z,18.25
2022-08-22T01:17:42.110Z,18.22
2022-08-22T01:17:52.013Z,18.19
2022-08-22T01:18:02.124Z,18.21
2022-08-22T01:18:12.018Z,18.25
2022-08-22T01:18:22.094Z,18.19
2022-08-22T01:18:32.023Z,18.19
2022-08-22T01:18:42.202Z,18.19
2022-08-22T01:18:52.047Z,18.19
2022-08-22T01:19:02.253Z,18.17
2022-08-22T01:19:12.087Z,18.18
2022-08-22T01:19:21.966Z,18.21
2022-08-22T01:19:32.103Z,18.19
2022-08-22T01:19:42.003Z,18.18
2022-08-22T01:19:52.209Z,18.15
2022-08-22T01:20:02.047Z,18.15
2022-08-22T01:20:12.230Z,18.18
2022-08-22T01:20:22.118Z,18.18
2022-08-22T01:20:32.060Z,18.15
2022-08-22T01:20:42.166Z,18.17
2022-08-22T01:20:52.081Z,18.13
2022-08-22T01:21:02.092Z,18.19
2022-08-22T01:21:12.190Z,18.15
2022-08-22T01:21:24.202Z,18.15
2022-08-22T01:21:32.101Z,18.15
2022-08-22T01:21:42.133Z,18.17
2022-08-22T01:21:52.028Z,18.17
2022-08-22T01:22:02.041Z,18.13
2022-08-22T01:22:12.001Z,18.18
2022-08-22T01:22:22.209Z,18.13
2022-08-22T01:22:32.020Z,18.13
2022-08-22T01:22:42.213Z,18.13
2022-08-22T01:22:52.238Z,18.13
2022-08-22T01:23:01.984Z,18.19
2022-08-22T01:23:12.177Z,18.17
2022-08-22T01:23:22.179Z,18.17
2022-08-22T01:23:32.153Z,18.12
2022-08-22T01:23:42.074Z,18.13
2022-08-22T01:23:52.184Z,18.15
2022-08-22T01:24:02.262Z,18.15
2022-08-22T01:24:12.108Z,18.18
2022-08-22T01:24:22.153Z,18.17
2022-08-22T01:24:32.025Z,18.19
2022-08-22T01:24:41.973Z,18.13
2022-08-22T01:24:51.983Z,18.17
2022-08-22T01:25:02.150Z,18.18
2022-08-22T01:25:12.243Z,18.19
2022-08-22T01:25:25.822Z,18.19
2022-08-22T01:25:32.096Z,18.18
2022-08-22T01:25:42.225Z,18.22
2022-08-22T01:25:52.157Z,18.18
2022-08-22T01:26:02.157Z,18.21
2022-08-22T01:26:12.106Z,18.21
2022-08-22T01:26:21.980Z,18.22
2022-08-22T01:26:32.138Z,18.18
2022-08-22T01:26:44.755Z,18.24
2022-08-22T01:26:52.142Z,18.24
2022-08-22T01:27:02.120Z,18.19
2022-08-22T01:27:12.074Z,18.22
2022-08-22T01:27:22.246Z,18.24
2022-08-22T01:27:32.026Z,18.19
2022-08-22T01:27:42.152Z,18.19
2022-08-22T01:27:52.025Z,18.21
2022-08-22T01:28:02.061Z,18.22
2022-08-22T01:28:12.097Z,18.24
2022-08-22T01:28:23.285Z,18.18
2022-08-22T01:28:32.146Z,18.19
2022-08-22T01:28:41.988Z,18.18
2022-08-22T01:28:52.119Z,18.22
2022-08-22T01:29:02.154Z,18.18
2022-08-22T01:29:12.180Z,18.21
2022-08-22T01:29:28.462Z,18.18
2022-08-22T01:29:32.242Z,18.18
2022-08-22T01:29:42.217Z,18.17
2022-08-22T01:29:52.152Z,18.18
2022-08-22T01:30:02.083Z,18.15
2022-08-22T01:30:12.011Z,18.17
2022-08-22T01:30:22.670Z,18.17
2022-08-22T01:30:32.206Z,18.15
2022-08-22T01:30:42.063Z,18.13
2022-08-22T01:30:52.068Z,18.10
2022-08-22T01:31:02.071Z,18.15
2022-08-22T01:31:12.060Z,18.15
2022-08-22T01:31:22.237Z,18.09
2022-08-22T01:31:32.009Z,18.13
2022-08-22T01:31:42.014Z,18.12
2022-08-22T01:31:51.977Z,18.10
2022-08-22T01:32:02.227Z,18.10
2022-08-22T01:32:11.992Z,18.06
2022-08-22T01:32:22.073Z,18.07
2022-08-22T01:32:32.109Z,18.09
2022-08-22T01:32:42.040Z,18.10
2022-08-22T01:32:56.967Z,18.12
2022-08-22T01:33:02.041Z,18.09
2022-08-22T01:33:12.138Z,18.09
2022-08-22T01:33:22.153Z,18.10
2022-08-22T01:33:32.020Z,18.06
2022-08-22T01:33:42.144Z,18.07
2022-08-22T01:33:52.025Z,18.03
2022-08-22T01:34:01.984Z,18.06
2022-08-22T01:34:13.094Z,18.04
2022-08-22T01:34:22.115Z,18.09
2022-08-22T01:34:32.198Z,18.04
2022-08-22T01:34:42.010Z,18.06
2022-08-22T01:34:52.223Z,18.04
2022-08-22T01:35:02.057Z,18.04
2022-08-22T01:35:11.969Z,18.06
2022-08-22T01:35:22.156Z,18.07
2022-08-22T01:35:32.010Z,18.06
2022-08-22T01:35:42.037Z,18.07
2022-08-22T01:35:52.242Z,18.03
2022-08-22T01:36:02.118Z,18.04
2022-08-22T01:36:12.115Z,18.04
2022-08-22T01:36:22.122Z,18.06
2022-08-22T01:36:32.130Z,18.03
2022-08-22T01:36:41.960Z,18.03
2022-08-22T01:36:52.261Z,18.03
2022-08-22T01:37:02.244Z,18.07
2022-08-22T01:37:12.043Z,18.02
2022-08-22T01:37:21.985Z,18.07
2022-08-22T01:37:31.988Z,18.03
2022-08-22T01:37:43.680Z,18.00
2022-08-22T01:37:51.977Z,18.02
2022-08-22T01:38:02.195Z,18.03
2022-08-22T01:38:12.057Z,18.03
2022-08-22T01:38:22.007Z,18.07
2022-08-22T01:38:32.011Z,18.04
2022-08-22T01:38:42.236Z,18.07
2022-08-22T01:38:52.173Z,18.06
2022-08-22T01:39:02.069Z,18.06
2022-08-22T01:39:12.179Z,18.06
2022-08-22T01:39:22.030Z,18.04
2022-08-22T01:39:32.067Z,18.06
2022-08-22T01:39:42.169Z,18.07
2022-08-22T01:39:52.165Z,18.07
2022-08-22T01:40:02.155Z,18.09
2022-08-22T01:40:12.119Z,18.07
2022-08-22T01:40:22.327Z,18.09
2022-08-22T01:40:32.246Z,18.09
2022-08-22T01:40:53.482Z,18.09
2022-08-22T01:40:53.988Z,18.13
2022-08-22T01:41:02.133Z,18.12
2022-08-22T01:41:12.135Z,18.12
2022-08-22T01:41:22.027Z,18.10
2022-08-22T01:41:32.269Z,18.10
2022-08-22T01:41:42.027Z,18.15
2022-08-22T01:41:52.065Z,18.13
2022-08-22T01:42:02.111Z,18.13
2022-08-22T01:42:12.134Z,18.10
2022-08-22T01:42:22.208Z,18.10
2022-08-22T01:42:32.097Z,18.15
2022-08-22T01:42:42.027Z,18.13
2022-08-22T01:42:51.971Z,18.12
2022-08-22T01:43:02.032Z,18.15
2022-08-22T01:43:12.053Z,18.18
2022-08-22T01:43:21.979Z,18.15
2022-08-22T01:43:58.836Z,18.10
2022-08-22T01:43:59.620Z,18.18
2022-08-22T01:44:00.543Z,18.15
2022-08-22T01:44:02.003Z,18.15
2022-08-22T01:44:11.987Z,18.18
2022-08-22T01:44:22.197Z,18.17
2022-08-22T01:44:31.991Z,18.21
2022-08-22T01:44:42.117Z,18.15
2022-08-22T01:44:52.176Z,18.19
2022-08-22T01:45:02.084Z,18.21
2022-08-22T01:45:12.210Z,18.21
2022-08-22T01:45:22.025Z,18.18
2022-08-22T01:45:32.103Z,18.22
2022-08-22T01:45:42.022Z,18.21
2022-08-22T01:45:51.991Z,18.21
2022-08-22T01:46:02.086Z,18.19
2022-08-22T01:46:12.049Z,18.21
2022-08-22T01:46:22.164Z,18.19
2022-08-22T01:46:32.239Z,18.21
2022-08-22T01:46:42.191Z,18.22
2022-08-22T01:46:52.105Z,18.22
2022-08-22T01:47:02.073Z,18.18
2022-08-22T01:47:12.078Z,18.22
2022-08-22T01:47:21.996Z,18.24
2022-08-22T01:47:36.741Z,18.22
2022-08-22T01:47:42.179Z,18.21
2022-08-22T01:47:53.618Z,18.21
2022-08-22T01:48:01.996Z,18.22
2022-08-22T01:48:12.226Z,18.22
2022-08-22T01:48:22.138Z,18.25
2022-08-22T01:48:32.070Z,18.18
2022-08-22T01:48:42.086Z,18.22
2022-08-22T01:48:52.162Z,18.22
2022-08-22T01:49:01.999Z,18.21
2022-08-22T01:49:12.015Z,18.22
2022-08-22T01:49:22.113Z,18.18
2022-08-22T01:49:32.155Z,18.19
2022-08-22T01:49:42.215Z,18.18
2022-08-22T01:49:52.149Z,18.19
2022-08-22T01:50:02.112Z,18.21
2022-08-22T01:50:12.030Z,18.19
2022-08-22T01:50:22.064Z,18.18
2022-08-22T01:50:32.143Z,18.15
2022-08-22T01:50:42.024Z,18.19
2022-08-22T01:50:51.987Z,18.19
2022-08-22T01:51:02.198Z,18.24
2022-08-22T01:51:12.061Z,18.18
2022-08-22T01:51:22.162Z,18.17
2022-08-22T01:51:32.188Z,18.21
2022-08-22T01:51:42.156Z,18.18
2022-08-22T01:51:52.029Z,18.15
2022-08-22T01:52:02.038Z,18.17
2022-08-22T01:52:12.071Z,18.13
2022-08-22T01:52:22.165Z,18.13
2022-08-22T01:52:32.146Z,18.17
2022-08-22T01:52:42.251Z,18.17
2022-08-22T01:52:52.106Z,18.15
2022-08-22T01:53:02.173Z,18.15
2022-08-22T01:53:11.998Z,18.15
2022-08-22T01:53:22.133Z,18.17
2022-08-22T01:53:32.075Z,18.13
2022-08-22T01:53:42.101Z,18.13
2022-08-22T01:53:52.001Z,18.13
2022-08-22T01:54:02.038Z,18.15
2022-08-22T01:54:11.992Z,18.18
2022-08-22T01:54:22.227Z,18.13
2022-08-22T01:54:32.105Z,18.15
2022-08-22T01:54:42.219Z,18.12
2022-08-22T01:54:52.189Z,18.12
2022-08-22T01:55:02.105Z,18.09
2022-08-22T01:55:12.100Z,18.09
2022-08-22T01:55:22.118Z,18.12
2022-08-22T01:55:32.195Z,18.09
2022-08-22T01:55:42.250Z,18.06
2022-08-22T01:55:52.203Z,18.07
2022-08-22T01:56:01.967Z,18.07
2022-08-22T01:56:12.145Z,18.10
2022-08-22T01:56:22.034Z,18.09
2022-08-22T01:56:32.254Z,18.07
2022-08-22T01:56:42.049Z,18.09
2022-08-22T01:56:52.016Z,18.07
2022-08-22T01:57:02.116Z,18.09
2022-08-22T01:57:12.208Z,18.04
2022-08-22T01:57:22.224Z,18.07
2022-08-22T01:57:32.076Z,18.07
2022-08-22T01:57:42.080Z,18.00
2022-08-22T01:57:52.165Z,18.04
2022-08-22T01:58:02.009Z,18.04
2022-08-22T01:58:12.092Z,18.02
2022-08-22T01:58:22.185Z,18.04
2022-08-22T01:58:32.122Z,18.00
2022-08-22T01:58:41.992Z,18.00
2022-08-22T01:58:52.157Z,18.03
2022-08-22T01:59:02.108Z,17.99
2022-08-22T01:59:11.979Z,18.02
2022-08-22T01:59:22.055Z,18.02
2022-08-22T01:59:33.982Z,17.97
2022-08-22T01:59:42.855Z,17.99
2022-08-22T01:59:52.254Z,17.95
2022-08-22T02:00:02.185Z,17.95
2022-08-22T02:00:11.981Z,17.97
2022-08-22T02:00:34.682Z,17.97
2022-08-22T02:00:35.035Z,17.97
2022-08-22T02:00:42.242Z,17.97
2022-08-22T02:00:52.262Z,17.95
2022-08-22T02:01:02.120Z,17.97
2022-08-22T02:01:12.208Z,17.95
2022-08-22T02:01:22.074Z,17.95
2022-08-22T02:01:32.010Z,17.95
2022-08-22T02:01:42.161Z,17.94
2022-08-22T02:01:52.157Z,17.95
2022-08-22T02:02:02.198Z,17.99
2022-08-22T02:02:12.196Z,18.00
2022-08-22T02:02:22.094Z,17.97
2022-08-22T02:02:32.103Z,17.99
2022-08-22T02:02:42.253Z,17.99
2022-08-22T02:02:52.209Z,17.95
2022-08-22T02:03:02.268Z,17.92
2022-08-22T02:03:12.193Z,17.95
2022-08-22T02:03:22.143Z,17.99
2022-08-22T02:03:32.060Z,17.97
2022-08-22T02:03:42.205Z,17.99
2022-08-22T02:03:52.028Z,17.97